sensor_id;sensor_type;location;lat;lon;timestamp;temperature;humidity
8593;DHT22;4334;49.982;8.398;2024-01-10T00:01:33;-3.60;93.50
8593;DHT22;4334;49.982;8.398;2024-01-10T00:03:59;0.40;95.30
8593;DHT22;4334;49.982;8.398;2024-01-10T00:06:27;-3.00;94.10
8593;DHT22;4334;49.982;8.398;2024-01-10T00:08:54;-3.70;93.80
8593;DHT22;4334;49.982;8.398;2024-01-10T00:11:21;-2.90;94.30
8593;DHT22;4334;49.982;8.398;2024-01-10T00:13:47;-3.70;94.10
8593;DHT22;4334;49.982;8.398;2024-01-10T00:16:14;-3.80;94.30
8593;DHT22;4334;49.982;8.398;2024-01-10T00:18:41;-3.80;94.50
8593;DHT22;4334;49.982;8.398;2024-01-10T00:21:09;-3.10;94.90
8593;DHT22;4334;49.982;8.398;2024-01-10T00:23:38;-3.80;94.80
8593;DHT22;4334;49.982;8.398;2024-01-10T00:26:04;-3.90;95.00
8593;DHT22;4334;49.982;8.398;2024-01-10T00:28:31;-3.90;95.20
8593;DHT22;4334;49.982;8.398;2024-01-10T00:30:58;-3.90;95.50
8593;DHT22;4334;49.982;8.398;2024-01-10T00:33:24;-0.50;97.10
8593;DHT22;4334;49.982;8.398;2024-01-10T00:35:51;-3.00;96.40
8593;DHT22;4334;49.982;8.398;2024-01-10T00:38:18;-2.30;97.00
8593;DHT22;4334;49.982;8.398;2024-01-10T00:40:46;-4.10;96.40
8593;DHT22;4334;49.982;8.398;2024-01-10T00:43:12;-1.00;97.90
8593;DHT22;4334;49.982;8.398;2024-01-10T00:45:39;-4.10;96.70
8593;DHT22;4334;49.982;8.398;2024-01-10T00:48:06;-4.10;96.80
8593;DHT22;4334;49.982;8.398;2024-01-10T00:50:33;-4.10;97.00
8593;DHT22;4334;49.982;8.398;2024-01-10T00:52:59;-4.00;97.20
8593;DHT22;4334;49.982;8.398;2024-01-10T00:55:26;-3.20;97.60
8593;DHT22;4334;49.982;8.398;2024-01-10T00:57:54;-3.60;97.70
8593;DHT22;4334;49.982;8.398;2024-01-10T01:00:21;-1.50;98.70
8593;DHT22;4334;49.982;8.398;2024-01-10T01:02:52;-4.00;97.80
8593;DHT22;4334;49.982;8.398;2024-01-10T01:05:18;-4.10;97.80
8593;DHT22;4334;49.982;8.398;2024-01-10T01:07:45;-3.60;98.10
8593;DHT22;4334;49.982;8.398;2024-01-10T01:10:12;-3.10;98.70
8593;DHT22;4334;49.982;8.398;2024-01-10T01:12:38;-4.20;98.30
8593;DHT22;4334;49.982;8.398;2024-01-10T01:15:07;-4.20;98.60
8593;DHT22;4334;49.982;8.398;2024-01-10T01:17:34;-4.20;98.70
8593;DHT22;4334;49.982;8.398;2024-01-10T01:20:01;-4.30;98.90
8593;DHT22;4334;49.982;8.398;2024-01-10T01:22:30;-2.60;99.90
8593;DHT22;4334;49.982;8.398;2024-01-10T01:24:56;-3.10;99.90
8593;DHT22;4334;49.982;8.398;2024-01-10T01:27:23;-4.40;99.60
8593;DHT22;4334;49.982;8.398;2024-01-10T01:29:50;-4.40;99.90
8593;DHT22;4334;49.982;8.398;2024-01-10T01:32:18;-1.40;99.90
8593;DHT22;4334;49.982;8.398;2024-01-10T01:34:44;-4.40;99.90
8593;DHT22;4334;49.982;8.398;2024-01-10T01:37:11;-3.20;99.90
8593;DHT22;4334;49.982;8.398;2024-01-10T01:39:38;-3.50;99.90
8593;DHT22;4334;49.982;8.398;2024-01-10T01:42:04;-4.50;99.90
8593;DHT22;4334;49.982;8.398;2024-01-10T01:44:31;-4.60;99.90
8593;DHT22;4334;49.982;8.398;2024-01-10T01:46:58;-3.40;99.90
8593;DHT22;4334;49.982;8.398;2024-01-10T01:49:26;-4.60;99.90
8593;DHT22;4334;49.982;8.398;2024-01-10T01:51:53;-1.70;99.90
8593;DHT22;4334;49.982;8.398;2024-01-10T01:54:19;-3.10;99.90
8593;DHT22;4334;49.982;8.398;2024-01-10T01:56:46;-4.50;99.90
8593;DHT22;4334;49.982;8.398;2024-01-10T01:59:13;-4.70;99.90
8593;DHT22;4334;49.982;8.398;2024-01-10T02:01:40;-4.70;99.90
8593;DHT22;4334;49.982;8.398;2024-01-10T02:04:07;-1.00;99.90
8593;DHT22;4334;49.982;8.398;2024-01-10T02:06:35;-4.80;99.90
8593;DHT22;4334;49.982;8.398;2024-01-10T02:09:02;-4.80;99.90
8593;DHT22;4334;49.982;8.398;2024-01-10T02:11:29;-4.80;99.90
8593;DHT22;4334;49.982;8.398;2024-01-10T02:13:57;-2.40;99.90
8593;DHT22;4334;49.982;8.398;2024-01-10T02:16:24;-3.80;99.90
8593;DHT22;4334;49.982;8.398;2024-01-10T02:18:51;-2.20;99.90
8593;DHT22;4334;49.982;8.398;2024-01-10T02:21:20;-4.90;99.90
8593;DHT22;4334;49.982;8.398;2024-01-10T02:23:48;-2.50;99.90
8593;DHT22;4334;49.982;8.398;2024-01-10T02:26:16;-4.90;99.90
8593;DHT22;4334;49.982;8.398;2024-01-10T02:28:43;-4.60;99.90
8593;DHT22;4334;49.982;8.398;2024-01-10T02:31:10;-4.90;99.90
8593;DHT22;4334;49.982;8.398;2024-01-10T02:33:36;-1.00;99.90
8593;DHT22;4334;49.982;8.398;2024-01-10T02:36:04;-2.90;99.90
8593;DHT22;4334;49.982;8.398;2024-01-10T02:38:31;-4.90;99.90
8593;DHT22;4334;49.982;8.398;2024-01-10T02:40:57;-5.00;99.90
8593;DHT22;4334;49.982;8.398;2024-01-10T02:43:27;-5.00;99.90
8593;DHT22;4334;49.982;8.398;2024-01-10T02:45:54;-5.00;99.90
8593;DHT22;4334;49.982;8.398;2024-01-10T02:48:20;-1.30;99.90
8593;DHT22;4334;49.982;8.398;2024-01-10T02:50:47;-2.80;99.90
8593;DHT22;4334;49.982;8.398;2024-01-10T02:53:14;-5.00;99.90
8593;DHT22;4334;49.982;8.398;2024-01-10T02:55:40;-5.00;99.90
8593;DHT22;4334;49.982;8.398;2024-01-10T02:58:07;-5.00;99.90
8593;DHT22;4334;49.982;8.398;2024-01-10T03:00:35;-5.10;99.90
8593;DHT22;4334;49.982;8.398;2024-01-10T03:03:03;-5.00;99.90
8593;DHT22;4334;49.982;8.398;2024-01-10T03:05:30;-5.10;99.90
8593;DHT22;4334;49.982;8.398;2024-01-10T03:07:56;-5.10;99.90
8593;DHT22;4334;49.982;8.398;2024-01-10T03:10:23;-2.10;99.90
8593;DHT22;4334;49.982;8.398;2024-01-10T03:12:50;-3.90;99.90
8593;DHT22;4334;49.982;8.398;2024-01-10T03:15:16;-5.10;99.90
8593;DHT22;4334;49.982;8.398;2024-01-10T03:17:44;-4.10;99.90
8593;DHT22;4334;49.982;8.398;2024-01-10T03:20:11;-5.10;99.90
8593;DHT22;4334;49.982;8.398;2024-01-10T03:22:38;-5.10;99.90
8593;DHT22;4334;49.982;8.398;2024-01-10T03:25:05;-2.90;99.90
8593;DHT22;4334;49.982;8.398;2024-01-10T03:27:32;-5.10;99.90
8593;DHT22;4334;49.982;8.398;2024-01-10T03:29:58;-5.10;99.90
8593;DHT22;4334;49.982;8.398;2024-01-10T03:32:25;-5.10;99.90
8593;DHT22;4334;49.982;8.398;2024-01-10T03:34:53;-5.20;99.90
8593;DHT22;4334;49.982;8.398;2024-01-10T03:37:19;-3.80;99.90
8593;DHT22;4334;49.982;8.398;2024-01-10T03:39:46;-4.20;99.90
8593;DHT22;4334;49.982;8.398;2024-01-10T03:42:13;-4.70;99.90
8593;DHT22;4334;49.982;8.398;2024-01-10T03:44:41;-2.30;99.90
8593;DHT22;4334;49.982;8.398;2024-01-10T03:47:07;-3.00;99.90
8593;DHT22;4334;49.982;8.398;2024-01-10T03:49:34;-5.10;99.90
8593;DHT22;4334;49.982;8.398;2024-01-10T03:52:02;-5.10;99.90
8593;DHT22;4334;49.982;8.398;2024-01-10T03:54:28;-5.10;99.90
8593;DHT22;4334;49.982;8.398;2024-01-10T03:56:55;-1.70;99.90
8593;DHT22;4334;49.982;8.398;2024-01-10T03:59:21;-5.10;99.90
8593;DHT22;4334;49.982;8.398;2024-01-10T04:01:48;-3.80;99.90
8593;DHT22;4334;49.982;8.398;2024-01-10T04:04:15;-5.00;99.90
8593;DHT22;4334;49.982;8.398;2024-01-10T04:06:42;-2.30;99.90
8593;DHT22;4334;49.982;8.398;2024-01-10T04:09:10;-5.00;99.90
8593;DHT22;4334;49.982;8.398;2024-01-10T04:11:36;-5.10;99.90
8593;DHT22;4334;49.982;8.398;2024-01-10T04:14:03;-5.00;99.90
8593;DHT22;4334;49.982;8.398;2024-01-10T04:16:31;-4.40;99.90
8593;DHT22;4334;49.982;8.398;2024-01-10T04:18:57;-5.00;99.90
8593;DHT22;4334;49.982;8.398;2024-01-10T04:21:24;-2.90;99.90
8593;DHT22;4334;49.982;8.398;2024-01-10T04:23:51;-5.00;99.90
8593;DHT22;4334;49.982;8.398;2024-01-10T04:26:19;-5.00;99.90
8593;DHT22;4334;49.982;8.398;2024-01-10T04:28:46;-2.60;99.90
8593;DHT22;4334;49.982;8.398;2024-01-10T04:31:12;-4.40;99.90
8593;DHT22;4334;49.982;8.398;2024-01-10T04:33:39;-4.10;99.90
8593;DHT22;4334;49.982;8.398;2024-01-10T04:36:06;-1.00;99.90
8593;DHT22;4334;49.982;8.398;2024-01-10T04:38:33;-4.80;99.90
8593;DHT22;4334;49.982;8.398;2024-01-10T04:40:59;-1.50;99.90
8593;DHT22;4334;49.982;8.398;2024-01-10T04:43:27;-4.80;99.90
8593;DHT22;4334;49.982;8.398;2024-01-10T04:45:54;-4.10;99.90
8593;DHT22;4334;49.982;8.398;2024-01-10T04:48:21;-4.80;99.90
8593;DHT22;4334;49.982;8.398;2024-01-10T04:50:48;-2.80;99.90
8593;DHT22;4334;49.982;8.398;2024-01-10T04:53:14;-2.40;99.90
8593;DHT22;4334;49.982;8.398;2024-01-10T04:55:41;-4.80;99.90
8593;DHT22;4334;49.982;8.398;2024-01-10T04:58:07;-4.80;99.90
8593;DHT22;4334;49.982;8.398;2024-01-10T05:00:35;-3.20;99.90
8593;DHT22;4334;49.982;8.398;2024-01-10T05:03:02;-4.80;99.90
8593;DHT22;4334;49.982;8.398;2024-01-10T05:05:29;-4.90;99.90
8593;DHT22;4334;49.982;8.398;2024-01-10T05:07:56;-1.80;99.90
8593;DHT22;4334;49.982;8.398;2024-01-10T05:10:22;-4.90;99.90
8593;DHT22;4334;49.982;8.398;2024-01-10T05:12:49;-4.90;99.90
8593;DHT22;4334;49.982;8.398;2024-01-10T05:15:16;-1.80;99.90
8593;DHT22;4334;49.982;8.398;2024-01-10T05:17:44;-4.80;99.90
8593;DHT22;4334;49.982;8.398;2024-01-10T05:20:10;-2.50;99.90
8593;DHT22;4334;49.982;8.398;2024-01-10T05:22:38;-4.90;99.90
8593;DHT22;4334;49.982;8.398;2024-01-10T05:25:05;-0.90;99.90
8593;DHT22;4334;49.982;8.398;2024-01-10T05:27:32;-4.90;99.90
8593;DHT22;4334;49.982;8.398;2024-01-10T05:29:59;-3.70;99.90
8593;DHT22;4334;49.982;8.398;2024-01-10T05:32:26;-3.90;99.90
8593;DHT22;4334;49.982;8.398;2024-01-10T05:34:54;-4.80;99.90
8593;DHT22;4334;49.982;8.398;2024-01-10T05:37:20;-4.80;99.90
8593;DHT22;4334;49.982;8.398;2024-01-10T05:39:47;-1.20;99.90
8593;DHT22;4334;49.982;8.398;2024-01-10T05:42:14;-2.20;99.90
8593;DHT22;4334;49.982;8.398;2024-01-10T05:44:41;-4.80;99.90
8593;DHT22;4334;49.982;8.398;2024-01-10T05:47:08;-4.30;99.90
8593;DHT22;4334;49.982;8.398;2024-01-10T05:49:34;-1.10;99.90
8593;DHT22;4334;49.982;8.398;2024-01-10T05:52:03;-1.60;99.90
8593;DHT22;4334;49.982;8.398;2024-01-10T05:54:29;-4.80;99.90
8593;DHT22;4334;49.982;8.398;2024-01-10T05:56:56;-4.80;99.90
8593;DHT22;4334;49.982;8.398;2024-01-10T05:59:23;-4.80;99.90
8593;DHT22;4334;49.982;8.398;2024-01-10T06:01:50;-4.80;99.90
8593;DHT22;4334;49.982;8.398;2024-01-10T06:04:17;-4.30;99.90
8593;DHT22;4334;49.982;8.398;2024-01-10T06:06:44;-4.80;99.90
8593;DHT22;4334;49.982;8.398;2024-01-10T06:09:13;-4.60;99.90
8593;DHT22;4334;49.982;8.398;2024-01-10T06:11:41;-2.40;99.90
8593;DHT22;4334;49.982;8.398;2024-01-10T06:14:08;-4.90;99.90
8593;DHT22;4334;49.982;8.398;2024-01-10T06:16:34;-4.90;99.90
8593;DHT22;4334;49.982;8.398;2024-01-10T06:19:01;-1.60;99.90
8593;DHT22;4334;49.982;8.398;2024-01-10T06:21:28;-4.80;99.90
8593;DHT22;4334;49.982;8.398;2024-01-10T06:23:55;-1.70;99.90
8593;DHT22;4334;49.982;8.398;2024-01-10T06:26:23;-1.70;99.90
8593;DHT22;4334;49.982;8.398;2024-01-10T06:28:50;-1.80;99.90
8593;DHT22;4334;49.982;8.398;2024-01-10T06:31:16;-4.90;99.90
8593;DHT22;4334;49.982;8.398;2024-01-10T06:33:43;-4.80;99.90
8593;DHT22;4334;49.982;8.398;2024-01-10T06:36:09;-2.90;99.90
8593;DHT22;4334;49.982;8.398;2024-01-10T06:38:38;-4.90;99.90
8593;DHT22;4334;49.982;8.398;2024-01-10T06:41:07;-4.90;99.90
8593;DHT22;4334;49.982;8.398;2024-01-10T06:43:36;-4.90;99.90
8593;DHT22;4334;49.982;8.398;2024-01-10T06:46:02;-2.20;99.90
8593;DHT22;4334;49.982;8.398;2024-01-10T06:48:29;-4.80;99.90
8593;DHT22;4334;49.982;8.398;2024-01-10T06:50:57;-4.80;99.90
8593;DHT22;4334;49.982;8.398;2024-01-10T06:53:23;-2.60;99.90
8593;DHT22;4334;49.982;8.398;2024-01-10T06:55:50;-4.80;99.90
8593;DHT22;4334;49.982;8.398;2024-01-10T06:58:17;-3.20;99.90
8593;DHT22;4334;49.982;8.398;2024-01-10T07:00:45;-3.60;99.90
8593;DHT22;4334;49.982;8.398;2024-01-10T07:03:11;-1.30;99.90
8593;DHT22;4334;49.982;8.398;2024-01-10T07:05:38;-1.60;99.90
8593;DHT22;4334;49.982;8.398;2024-01-10T07:08:05;-2.30;99.90
8593;DHT22;4334;49.982;8.398;2024-01-10T07:10:32;-4.60;99.90
8593;DHT22;4334;49.982;8.398;2024-01-10T07:12:59;-4.50;99.90
8593;DHT22;4334;49.982;8.398;2024-01-10T07:15:29;-3.00;99.90
8593;DHT22;4334;49.982;8.398;2024-01-10T07:17:57;-2.10;99.90
8593;DHT22;4334;49.982;8.398;2024-01-10T07:20:24;-3.70;99.90
8593;DHT22;4334;49.982;8.398;2024-01-10T07:22:51;-4.50;99.90
8593;DHT22;4334;49.982;8.398;2024-01-10T07:25:18;-4.50;99.90
8593;DHT22;4334;49.982;8.398;2024-01-10T07:27:44;-4.50;99.90
8593;DHT22;4334;49.982;8.398;2024-01-10T07:30:12;-4.00;99.90
8593;DHT22;4334;49.982;8.398;2024-01-10T07:32:40;-4.40;99.90
8593;DHT22;4334;49.982;8.398;2024-01-10T07:35:09;-3.00;99.90
8593;DHT22;4334;49.982;8.398;2024-01-10T07:37:36;-3.60;99.90
8593;DHT22;4334;49.982;8.398;2024-01-10T07:40:04;-4.40;99.90
8593;DHT22;4334;49.982;8.398;2024-01-10T07:42:31;-4.40;99.90
8593;DHT22;4334;49.982;8.398;2024-01-10T07:44:58;-2.00;99.90
8593;DHT22;4334;49.982;8.398;2024-01-10T07:47:25;-4.40;99.90
8593;DHT22;4334;49.982;8.398;2024-01-10T07:49:51;-1.00;99.90
8593;DHT22;4334;49.982;8.398;2024-01-10T07:52:19;-3.40;99.90
8593;DHT22;4334;49.982;8.398;2024-01-10T07:54:46;-4.30;99.90
8593;DHT22;4334;49.982;8.398;2024-01-10T07:57:13;-0.90;99.90
8593;DHT22;4334;49.982;8.398;2024-01-10T07:59:40;-2.10;99.90
8593;DHT22;4334;49.982;8.398;2024-01-10T08:02:06;-4.10;99.90
8593;DHT22;4334;49.982;8.398;2024-01-10T08:04:35;-4.00;99.90
8593;DHT22;4334;49.982;8.398;2024-01-10T08:07:02;-1.90;99.90
8593;DHT22;4334;49.982;8.398;2024-01-10T08:09:30;-4.00;99.90
8593;DHT22;4334;49.982;8.398;2024-01-10T08:11:57;-3.90;99.90
8593;DHT22;4334;49.982;8.398;2024-01-10T08:14:24;-3.90;99.90
8593;DHT22;4334;49.982;8.398;2024-01-10T08:16:50;-3.90;99.90
8593;DHT22;4334;49.982;8.398;2024-01-10T08:19:18;-3.80;99.90
8593;DHT22;4334;49.982;8.398;2024-01-10T08:21:45;-3.70;99.90
8593;DHT22;4334;49.982;8.398;2024-01-10T08:24:12;-3.70;99.90
8593;DHT22;4334;49.982;8.398;2024-01-10T08:26:40;-3.30;99.90
8593;DHT22;4334;49.982;8.398;2024-01-10T08:29:06;-3.60;99.90
8593;DHT22;4334;49.982;8.398;2024-01-10T08:31:33;-1.60;99.90
8593;DHT22;4334;49.982;8.398;2024-01-10T08:34:00;-2.50;99.90
8593;DHT22;4334;49.982;8.398;2024-01-10T08:36:27;-3.40;99.90
8593;DHT22;4334;49.982;8.398;2024-01-10T08:38:53;-2.80;99.90
8593;DHT22;4334;49.982;8.398;2024-01-10T08:41:20;-3.00;99.90
8593;DHT22;4334;49.982;8.398;2024-01-10T08:43:48;-3.10;99.90
8593;DHT22;4334;49.982;8.398;2024-01-10T08:46:16;-1.80;99.90
8593;DHT22;4334;49.982;8.398;2024-01-10T08:48:43;-0.50;99.90
8593;DHT22;4334;49.982;8.398;2024-01-10T08:51:10;-3.00;99.90
8593;DHT22;4334;49.982;8.398;2024-01-10T08:53:37;-3.10;99.90
8593;DHT22;4334;49.982;8.398;2024-01-10T08:56:04;-1.70;99.90
8593;DHT22;4334;49.982;8.398;2024-01-10T08:58:31;-2.80;99.90
8593;DHT22;4334;49.982;8.398;2024-01-10T09:00:59;-2.10;99.90
8593;DHT22;4334;49.982;8.398;2024-01-10T09:03:26;-2.40;99.90
8593;DHT22;4334;49.982;8.398;2024-01-10T09:05:53;-1.20;99.90
8593;DHT22;4334;49.982;8.398;2024-01-10T09:08:19;-1.50;99.90
8593;DHT22;4334;49.982;8.398;2024-01-10T09:10:46;-1.50;99.90
8593;DHT22;4334;49.982;8.398;2024-01-10T09:13:14;-1.50;99.90
8593;DHT22;4334;49.982;8.398;2024-01-10T09:15:41;-1.00;99.90
8593;DHT22;4334;49.982;8.398;2024-01-10T09:18:09;-1.60;99.90
8593;DHT22;4334;49.982;8.398;2024-01-10T09:20:36;-1.70;99.90
8593;DHT22;4334;49.982;8.398;2024-01-10T09:23:03;-1.80;99.90
8593;DHT22;4334;49.982;8.398;2024-01-10T09:25:30;-1.90;99.90
8593;DHT22;4334;49.982;8.398;2024-01-10T09:27:57;-2.10;99.90
8593;DHT22;4334;49.982;8.398;2024-01-10T09:30:24;-1.50;99.90
8593;DHT22;4334;49.982;8.398;2024-01-10T09:32:51;-2.20;99.90
8593;DHT22;4334;49.982;8.398;2024-01-10T09:35:19;-2.10;99.90
8593;DHT22;4334;49.982;8.398;2024-01-10T09:37:45;0.30;99.90
8593;DHT22;4334;49.982;8.398;2024-01-10T09:40:14;-1.90;99.90
8593;DHT22;4334;49.982;8.398;2024-01-10T09:42:43;-0.30;99.90
8593;DHT22;4334;49.982;8.398;2024-01-10T09:45:10;-1.70;99.90
8593;DHT22;4334;49.982;8.398;2024-01-10T09:47:39;-1.70;99.90
8593;DHT22;4334;49.982;8.398;2024-01-10T09:50:08;-1.70;99.90
8593;DHT22;4334;49.982;8.398;2024-01-10T09:52:42;-1.70;99.90
8593;DHT22;4334;49.982;8.398;2024-01-10T09:55:13;-1.90;99.90
8593;DHT22;4334;49.982;8.398;2024-01-10T09:57:40;-1.80;99.90
8593;DHT22;4334;49.982;8.398;2024-01-10T10:00:09;-1.80;99.90
8593;DHT22;4334;49.982;8.398;2024-01-10T10:02:38;-1.80;99.90
8593;DHT22;4334;49.982;8.398;2024-01-10T10:05:08;-1.90;99.90
8593;DHT22;4334;49.982;8.398;2024-01-10T10:07:45;-1.40;99.90
8593;DHT22;4334;49.982;8.398;2024-01-10T10:10:11;-1.80;99.90
8593;DHT22;4334;49.982;8.398;2024-01-10T10:12:43;-1.70;99.90
8593;DHT22;4334;49.982;8.398;2024-01-10T10:15:14;-1.90;99.90
8593;DHT22;4334;49.982;8.398;2024-01-10T10:17:43;-1.90;99.90
8593;DHT22;4334;49.982;8.398;2024-01-10T10:20:20;-1.80;99.90
8593;DHT22;4334;49.982;8.398;2024-01-10T10:23:03;-1.80;99.90
8593;DHT22;4334;49.982;8.398;2024-01-10T10:25:31;-1.80;99.90
8593;DHT22;4334;49.982;8.398;2024-01-10T10:27:58;-1.60;99.90
8593;DHT22;4334;49.982;8.398;2024-01-10T10:30:25;-1.50;99.90
8593;DHT22;4334;49.982;8.398;2024-01-10T10:32:52;-1.60;99.90
8593;DHT22;4334;49.982;8.398;2024-01-10T10:35:19;-1.60;99.90
8593;DHT22;4334;49.982;8.398;2024-01-10T10:37:48;-1.70;99.90
8593;DHT22;4334;49.982;8.398;2024-01-10T10:40:16;-1.00;99.90
8593;DHT22;4334;49.982;8.398;2024-01-10T10:42:44;-1.70;99.90
8593;DHT22;4334;49.982;8.398;2024-01-10T10:45:15;-0.70;99.90
8593;DHT22;4334;49.982;8.398;2024-01-10T10:47:44;-1.50;99.90
8593;DHT22;4334;49.982;8.398;2024-01-10T10:50:13;-1.50;99.90
8593;DHT22;4334;49.982;8.398;2024-01-10T10:52:44;-1.40;99.90
8593;DHT22;4334;49.982;8.398;2024-01-10T10:55:17;-1.30;99.90
8593;DHT22;4334;49.982;8.398;2024-01-10T10:57:45;-1.20;99.90
8593;DHT22;4334;49.982;8.398;2024-01-10T11:00:13;-1.00;99.90
8593;DHT22;4334;49.982;8.398;2024-01-10T11:02:41;-1.00;99.90
8593;DHT22;4334;49.982;8.398;2024-01-10T11:05:09;-0.50;99.90
8593;DHT22;4334;49.982;8.398;2024-01-10T11:07:36;-0.60;99.90
8593;DHT22;4334;49.982;8.398;2024-01-10T11:10:05;1.70;99.90
8593;DHT22;4334;49.982;8.398;2024-01-10T11:12:49;-0.60;99.90
8593;DHT22;4334;49.982;8.398;2024-01-10T11:15:29;-0.30;99.90
8593;DHT22;4334;49.982;8.398;2024-01-10T11:18:12;-0.40;99.90
8593;DHT22;4334;49.982;8.398;2024-01-10T11:21:06;-0.30;99.90
8593;DHT22;4334;49.982;8.398;2024-01-10T11:23:45;0.10;99.90
8593;DHT22;4334;49.982;8.398;2024-01-10T11:26:15;0.30;99.90
8593;DHT22;4334;49.982;8.398;2024-01-10T11:28:43;0.50;99.90
8593;DHT22;4334;49.982;8.398;2024-01-10T11:31:12;0.60;99.40
8593;DHT22;4334;49.982;8.398;2024-01-10T11:33:40;0.50;99.20
8593;DHT22;4334;49.982;8.398;2024-01-10T11:36:13;0.30;99.30
8593;DHT22;4334;49.982;8.398;2024-01-10T11:38:42;0.20;99.60
8593;DHT22;4334;49.982;8.398;2024-01-10T11:41:15;0.40;99.60
8593;DHT22;4334;49.982;8.398;2024-01-10T11:44:25;0.30;99.20
8593;DHT22;4334;49.982;8.398;2024-01-10T11:46:53;-0.60;98.60
8593;DHT22;4334;49.982;8.398;2024-01-10T11:49:22;0.70;98.30
8593;DHT22;4334;49.982;8.398;2024-01-10T11:51:50;0.70;98.60
8593;DHT22;4334;49.982;8.398;2024-01-10T11:54:40;0.80;98.70
8593;DHT22;4334;49.982;8.398;2024-01-10T11:57:16;1.20;97.70
8593;DHT22;4334;49.982;8.398;2024-01-10T11:59:47;0.80;97.40
8593;DHT22;4334;49.982;8.398;2024-01-10T12:02:14;0.70;98.20
8593;DHT22;4334;49.982;8.398;2024-01-10T12:04:41;0.50;98.00
8593;DHT22;4334;49.982;8.398;2024-01-10T12:07:08;0.60;98.30
8593;DHT22;4334;49.982;8.398;2024-01-10T12:09:35;0.60;98.30
8593;DHT22;4334;49.982;8.398;2024-01-10T12:12:02;0.70;98.60
8593;DHT22;4334;49.982;8.398;2024-01-10T12:14:29;0.90;97.70
8593;DHT22;4334;49.982;8.398;2024-01-10T12:16:58;1.10;97.40
8593;DHT22;4334;49.982;8.398;2024-01-10T12:19:25;1.20;97.30
8593;DHT22;4334;49.982;8.398;2024-01-10T12:21:52;1.20;97.10
8593;DHT22;4334;49.982;8.398;2024-01-10T12:24:19;1.30;96.60
8593;DHT22;4334;49.982;8.398;2024-01-10T12:26:47;1.20;96.70
8593;DHT22;4334;49.982;8.398;2024-01-10T12:29:17;1.30;97.00
8593;DHT22;4334;49.982;8.398;2024-01-10T12:31:43;2.00;96.50
8593;DHT22;4334;49.982;8.398;2024-01-10T12:34:12;2.90;95.60
8593;DHT22;4334;49.982;8.398;2024-01-10T12:36:39;3.60;93.40
8593;DHT22;4334;49.982;8.398;2024-01-10T12:39:06;4.10;92.50
8593;DHT22;4334;49.982;8.398;2024-01-10T12:41:33;3.60;91.90
8593;DHT22;4334;49.982;8.398;2024-01-10T12:44:01;3.80;91.70
8593;DHT22;4334;49.982;8.398;2024-01-10T12:46:29;4.00;91.50
8593;DHT22;4334;49.982;8.398;2024-01-10T12:49:01;4.40;90.40
8593;DHT22;4334;49.982;8.398;2024-01-10T12:51:30;5.20;88.30
8593;DHT22;4334;49.982;8.398;2024-01-10T12:53:59;4.60;86.40
8593;DHT22;4334;49.982;8.398;2024-01-10T12:56:26;4.30;88.40
8593;DHT22;4334;49.982;8.398;2024-01-10T12:58:54;4.00;87.80
8593;DHT22;4334;49.982;8.398;2024-01-10T13:01:21;4.10;87.10
8593;DHT22;4334;49.982;8.398;2024-01-10T13:03:47;3.60;87.30
8593;DHT22;4334;49.982;8.398;2024-01-10T13:06:15;5.10;88.30
8593;DHT22;4334;49.982;8.398;2024-01-10T13:08:43;3.00;87.00
8593;DHT22;4334;49.982;8.398;2024-01-10T13:11:10;2.50;88.20
8593;DHT22;4334;49.982;8.398;2024-01-10T13:13:39;1.60;90.40
8593;DHT22;4334;49.982;8.398;2024-01-10T13:16:07;1.00;91.70
8593;DHT22;4334;49.982;8.398;2024-01-10T13:18:36;0.80;92.60
8593;DHT22;4334;49.982;8.398;2024-01-10T13:21:02;0.90;92.90
8593;DHT22;4334;49.982;8.398;2024-01-10T13:23:29;0.80;92.80
8593;DHT22;4334;49.982;8.398;2024-01-10T13:25:57;0.70;92.50
8593;DHT22;4334;49.982;8.398;2024-01-10T13:28:24;0.60;93.30
8593;DHT22;4334;49.982;8.398;2024-01-10T13:30:51;0.50;93.70
8593;DHT22;4334;49.982;8.398;2024-01-10T13:33:21;0.50;93.00
8593;DHT22;4334;49.982;8.398;2024-01-10T13:35:48;0.40;93.40
8593;DHT22;4334;49.982;8.398;2024-01-10T13:38:16;0.40;93.90
8593;DHT22;4334;49.982;8.398;2024-01-10T13:40:43;0.40;94.20
8593;DHT22;4334;49.982;8.398;2024-01-10T13:43:11;0.30;94.50
8593;DHT22;4334;49.982;8.398;2024-01-10T13:45:37;0.40;94.40
8593;DHT22;4334;49.982;8.398;2024-01-10T13:48:05;0.40;94.50
8593;DHT22;4334;49.982;8.398;2024-01-10T13:50:33;0.40;94.70
8593;DHT22;4334;49.982;8.398;2024-01-10T13:52:59;0.50;94.90
8593;DHT22;4334;49.982;8.398;2024-01-10T13:55:26;0.40;95.00
8593;DHT22;4334;49.982;8.398;2024-01-10T13:57:53;0.30;95.20
8593;DHT22;4334;49.982;8.398;2024-01-10T14:00:23;0.40;95.30
8593;DHT22;4334;49.982;8.398;2024-01-10T14:02:49;0.30;95.40
8593;DHT22;4334;49.982;8.398;2024-01-10T14:05:20;0.20;95.40
8593;DHT22;4334;49.982;8.398;2024-01-10T14:07:47;0.20;95.20
8593;DHT22;4334;49.982;8.398;2024-01-10T14:10:13;0.20;95.70
8593;DHT22;4334;49.982;8.398;2024-01-10T14:12:40;0.30;95.60
8593;DHT22;4334;49.982;8.398;2024-01-10T14:15:08;0.30;95.50
8593;DHT22;4334;49.982;8.398;2024-01-10T14:17:36;0.30;95.50
8593;DHT22;4334;49.982;8.398;2024-01-10T14:20:04;0.20;95.50
8593;DHT22;4334;49.982;8.398;2024-01-10T14:22:34;0.30;95.70
8593;DHT22;4334;49.982;8.398;2024-01-10T14:25:01;0.20;95.70
8593;DHT22;4334;49.982;8.398;2024-01-10T14:27:28;0.10;96.00
8593;DHT22;4334;49.982;8.398;2024-01-10T14:29:54;0.20;96.20
8593;DHT22;4334;49.982;8.398;2024-01-10T14:32:21;0.10;96.30
8593;DHT22;4334;49.982;8.398;2024-01-10T14:34:49;0.10;96.40
8593;DHT22;4334;49.982;8.398;2024-01-10T14:37:15;0.10;96.50
8593;DHT22;4334;49.982;8.398;2024-01-10T14:39:42;0.10;96.30
8593;DHT22;4334;49.982;8.398;2024-01-10T14:42:09;0.10;96.20
8593;DHT22;4334;49.982;8.398;2024-01-10T14:44:35;0.10;96.40
8593;DHT22;4334;49.982;8.398;2024-01-10T14:47:02;0.10;96.50
8593;DHT22;4334;49.982;8.398;2024-01-10T14:49:30;0.00;96.80
8593;DHT22;4334;49.982;8.398;2024-01-10T14:51:58;0.00;97.00
8593;DHT22;4334;49.982;8.398;2024-01-10T14:54:25;-0.10;97.30
8593;DHT22;4334;49.982;8.398;2024-01-10T14:56:52;-0.10;97.60
8593;DHT22;4334;49.982;8.398;2024-01-10T14:59:19;-0.10;97.80
8593;DHT22;4334;49.982;8.398;2024-01-10T15:01:46;-0.20;97.80
8593;DHT22;4334;49.982;8.398;2024-01-10T15:04:13;-0.30;98.10
8593;DHT22;4334;49.982;8.398;2024-01-10T15:06:43;-0.30;98.30
8593;DHT22;4334;49.982;8.398;2024-01-10T15:09:11;1.20;99.20
8593;DHT22;4334;49.982;8.398;2024-01-10T15:11:39;-0.40;98.60
8593;DHT22;4334;49.982;8.398;2024-01-10T15:14:06;-0.40;98.60
8593;DHT22;4334;49.982;8.398;2024-01-10T15:16:33;-2.40;98.00
8593;DHT22;4334;49.982;8.398;2024-01-10T15:18:59;-0.50;99.00
8593;DHT22;4334;49.982;8.398;2024-01-10T15:21:26;-0.50;99.20
8593;DHT22;4334;49.982;8.398;2024-01-10T15:23:54;-0.60;99.30
8593;DHT22;4334;49.982;8.398;2024-01-10T15:26:22;-0.70;99.60
8593;DHT22;4334;49.982;8.398;2024-01-10T15:28:49;-0.70;99.90
8593;DHT22;4334;49.982;8.398;2024-01-10T15:31:16;-0.70;99.90
8593;DHT22;4334;49.982;8.398;2024-01-10T15:33:43;-0.70;99.90
8593;DHT22;4334;49.982;8.398;2024-01-10T15:36:10;-0.70;99.90
8593;DHT22;4334;49.982;8.398;2024-01-10T15:38:38;-0.70;99.90
8593;DHT22;4334;49.982;8.398;2024-01-10T15:41:06;-0.70;99.90
8593;DHT22;4334;49.982;8.398;2024-01-10T15:43:34;-0.80;99.90
8593;DHT22;4334;49.982;8.398;2024-01-10T15:46:04;-0.90;99.90
8593;DHT22;4334;49.982;8.398;2024-01-10T15:48:34;-0.90;99.90
8593;DHT22;4334;49.982;8.398;2024-01-10T15:51:01;-1.00;99.90
8593;DHT22;4334;49.982;8.398;2024-01-10T15:53:27;-0.90;99.90
8593;DHT22;4334;49.982;8.398;2024-01-10T15:55:55;-0.90;99.90
8593;DHT22;4334;49.982;8.398;2024-01-10T15:58:23;-1.00;99.90
8593;DHT22;4334;49.982;8.398;2024-01-10T16:00:51;-1.00;99.90
8593;DHT22;4334;49.982;8.398;2024-01-10T16:03:18;-0.50;99.90
8593;DHT22;4334;49.982;8.398;2024-01-10T16:05:44;-1.00;99.90
8593;DHT22;4334;49.982;8.398;2024-01-10T16:08:13;-1.10;99.90